Airport ID:KTME
Update Time (UTC):07/06/2020 06:04
Wind Speed (Knots):3
Wind Direction (Magnetic):10
Temperature (°C):24.2
Dew Point (°C):24.2
Humidity (%):100
Altimeter (inHg):29.8
Density Altitude (Feet):01800
Visibility (Miles):10
Clouds (Hundreds of feet):CLR
Present Weather:
METAR:METAR KTME 070600Z AUTO 01003KT 10SM CLR 24/24 A2980 RMK AO2

The data displayed is for advisory purposes only and is not to be used for flight planning or operations.